sensor_id;sensor_type;location;lat;lon;timestamp;temperature;humidity
66119;DHT22;52912;48.564;9.302;2023-07-22T00:01:45;14.34;88.22
66119;DHT22;52912;48.564;9.302;2023-07-22T00:04:11;14.25;88.27
66119;DHT22;52912;48.564;9.302;2023-07-22T00:06:38;14.29;88.45
66119;DHT22;52912;48.564;9.302;2023-07-22T00:09:03;14.15;88.46
66119;DHT22;52912;48.564;9.302;2023-07-22T00:11:29;13.92;89.44
66119;DHT22;52912;48.564;9.302;2023-07-22T00:13:54;13.98;88.86
66119;DHT22;52912;48.564;9.302;2023-07-22T00:16:19;13.88;89.52
66119;DHT22;52912;48.564;9.302;2023-07-22T00:18:45;13.91;89.02
66119;DHT22;52912;48.564;9.302;2023-07-22T00:21:10;13.89;89.08
66119;DHT22;52912;48.564;9.302;2023-07-22T00:23:37;13.85;88.92
66119;DHT22;52912;48.564;9.302;2023-07-22T00:26:02;13.86;89.02
66119;DHT22;52912;48.564;9.302;2023-07-22T00:28:28;13.92;88.78
66119;DHT22;52912;48.564;9.302;2023-07-22T00:30:53;13.92;88.61
66119;DHT22;52912;48.564;9.302;2023-07-22T00:33:19;13.77;88.73
66119;DHT22;52912;48.564;9.302;2023-07-22T00:35:47;13.91;88.37
66119;DHT22;52912;48.564;9.302;2023-07-22T00:38:12;13.77;88.77
66119;DHT22;52912;48.564;9.302;2023-07-22T00:40:39;13.81;88.49
66119;DHT22;52912;48.564;9.302;2023-07-22T00:43:05;13.77;88.88
66119;DHT22;52912;48.564;9.302;2023-07-22T00:45:30;13.73;88.91
66119;DHT22;52912;48.564;9.302;2023-07-22T00:47:56;13.81;88.54
66119;DHT22;52912;48.564;9.302;2023-07-22T00:50:21;13.74;88.65
66119;DHT22;52912;48.564;9.302;2023-07-22T00:52:47;13.88;88.10
66119;DHT22;52912;48.564;9.302;2023-07-22T00:55:13;13.85;88.01
66119;DHT22;52912;48.564;9.302;2023-07-22T00:57:40;13.78;87.87
66119;DHT22;52912;48.564;9.302;2023-07-22T01:00:06;13.67;88.30
66119;DHT22;52912;48.564;9.302;2023-07-22T01:02:32;13.57;88.47
66119;DHT22;52912;48.564;9.302;2023-07-22T01:04:58;13.61;88.69
66119;DHT22;52912;48.564;9.302;2023-07-22T01:07:23;13.65;88.77
66119;DHT22;52912;48.564;9.302;2023-07-22T01:09:49;13.68;88.49
66119;DHT22;52912;48.564;9.302;2023-07-22T01:12:14;13.68;88.37
66119;DHT22;52912;48.564;9.302;2023-07-22T01:14:41;13.64;88.10
66119;DHT22;52912;48.564;9.302;2023-07-22T01:17:09;13.67;88.31
66119;DHT22;52912;48.564;9.302;2023-07-22T01:19:35;13.63;88.19
66119;DHT22;52912;48.564;9.302;2023-07-22T01:22:02;13.60;88.20
66119;DHT22;52912;48.564;9.302;2023-07-22T01:24:29;13.60;88.37
66119;DHT22;52912;48.564;9.302;2023-07-22T01:26:55;13.58;88.38
66119;DHT22;52912;48.564;9.302;2023-07-22T01:29:21;13.54;88.20
66119;DHT22;52912;48.564;9.302;2023-07-22T01:31:50;13.57;88.16
66119;DHT22;52912;48.564;9.302;2023-07-22T01:34:16;13.54;88.02
66119;DHT22;52912;48.564;9.302;2023-07-22T01:36:41;13.50;88.27
66119;DHT22;52912;48.564;9.302;2023-07-22T01:39:06;13.54;88.60
66119;DHT22;52912;48.564;9.302;2023-07-22T01:41:33;13.57;88.39
66119;DHT22;52912;48.564;9.302;2023-07-22T01:43:59;13.43;89.04
66119;DHT22;52912;48.564;9.302;2023-07-22T01:46:24;13.26;89.88
66119;DHT22;52912;48.564;9.302;2023-07-22T01:48:50;13.33;89.91
66119;DHT22;52912;48.564;9.302;2023-07-22T01:51:15;13.39;89.44
66119;DHT22;52912;48.564;9.302;2023-07-22T01:53:40;13.40;89.25
66119;DHT22;52912;48.564;9.302;2023-07-22T01:56:06;13.33;89.58
66119;DHT22;52912;48.564;9.302;2023-07-22T01:58:33;13.30;89.12
66119;DHT22;52912;48.564;9.302;2023-07-22T02:00:58;13.23;89.46
66119;DHT22;52912;48.564;9.302;2023-07-22T02:03:24;13.16;89.87
66119;DHT22;52912;48.564;9.302;2023-07-22T02:05:49;13.16;89.65
66119;DHT22;52912;48.564;9.302;2023-07-22T02:08:15;13.20;89.93
66119;DHT22;52912;48.564;9.302;2023-07-22T02:10:40;13.19;89.48
66119;DHT22;52912;48.564;9.302;2023-07-22T02:13:06;13.12;89.46
66119;DHT22;52912;48.564;9.302;2023-07-22T02:15:33;13.05;89.79
66119;DHT22;52912;48.564;9.302;2023-07-22T02:17:58;12.96;89.93
66119;DHT22;52912;48.564;9.302;2023-07-22T02:20:24;12.99;90.12
66119;DHT22;52912;48.564;9.302;2023-07-22T02:22:49;13.01;90.45
66119;DHT22;52912;48.564;9.302;2023-07-22T02:25:15;13.03;90.26
66119;DHT22;52912;48.564;9.302;2023-07-22T02:27:40;13.02;89.82
66119;DHT22;52912;48.564;9.302;2023-07-22T02:30:07;12.89;90.28
66119;DHT22;52912;48.564;9.302;2023-07-22T02:32:34;12.89;90.24
66119;DHT22;52912;48.564;9.302;2023-07-22T02:34:59;12.81;90.44
66119;DHT22;52912;48.564;9.302;2023-07-22T02:37:25;12.85;90.31
66119;DHT22;52912;48.564;9.302;2023-07-22T02:39:50;12.75;90.38
66119;DHT22;52912;48.564;9.302;2023-07-22T02:42:16;12.71;91.01
66119;DHT22;52912;48.564;9.302;2023-07-22T02:44:41;12.68;90.89
66119;DHT22;52912;48.564;9.302;2023-07-22T02:47:06;12.61;90.73
66119;DHT22;52912;48.564;9.302;2023-07-22T02:49:33;12.64;90.63
66119;DHT22;52912;48.564;9.302;2023-07-22T02:51:59;12.61;90.45
66119;DHT22;52912;48.564;9.302;2023-07-22T02:54:24;12.50;90.95
66119;DHT22;52912;48.564;9.302;2023-07-22T02:56:50;12.57;90.71
66119;DHT22;52912;48.564;9.302;2023-07-22T02:59:15;12.58;90.85
66119;DHT22;52912;48.564;9.302;2023-07-22T03:01:40;12.54;90.95
66119;DHT22;52912;48.564;9.302;2023-07-22T03:04:06;12.39;91.44
66119;DHT22;52912;48.564;9.302;2023-07-22T03:06:33;12.37;91.40
66119;DHT22;52912;48.564;9.302;2023-07-22T03:08:58;12.32;91.51
66119;DHT22;52912;48.564;9.302;2023-07-22T03:11:23;12.26;91.90
66119;DHT22;52912;48.564;9.302;2023-07-22T03:13:49;12.21;92.24
66119;DHT22;52912;48.564;9.302;2023-07-22T03:16:14;12.18;92.04
66119;DHT22;52912;48.564;9.302;2023-07-22T03:18:40;12.34;91.65
66119;DHT22;52912;48.564;9.302;2023-07-22T03:21:05;12.36;91.61
66119;DHT22;52912;48.564;9.302;2023-07-22T03:23:32;12.39;91.55
66119;DHT22;52912;48.564;9.302;2023-07-22T03:25:57;12.30;91.96
66119;DHT22;52912;48.564;9.302;2023-07-22T03:28:23;12.37;91.76
66119;DHT22;52912;48.564;9.302;2023-07-22T03:30:48;12.44;91.56
66119;DHT22;52912;48.564;9.302;2023-07-22T03:33:14;12.49;91.60
66119;DHT22;52912;48.564;9.302;2023-07-22T03:35:39;12.58;91.21
66119;DHT22;52912;48.564;9.302;2023-07-22T03:38:05;12.61;91.41
66119;DHT22;52912;48.564;9.302;2023-07-22T03:40:31;12.61;91.44
66119;DHT22;52912;48.564;9.302;2023-07-22T03:42:57;12.58;91.31
66119;DHT22;52912;48.564;9.302;2023-07-22T03:45:23;12.60;91.11
66119;DHT22;52912;48.564;9.302;2023-07-22T03:47:51;12.61;91.19
66119;DHT22;52912;48.564;9.302;2023-07-22T03:50:16;12.64;90.85
66119;DHT22;52912;48.564;9.302;2023-07-22T03:52:42;12.57;91.12
66119;DHT22;52912;48.564;9.302;2023-07-22T03:55:08;12.58;90.82
66119;DHT22;52912;48.564;9.302;2023-07-22T03:57:35;12.68;90.66
66119;DHT22;52912;48.564;9.302;2023-07-22T04:00:00;12.74;90.67
66119;DHT22;52912;48.564;9.302;2023-07-22T04:02:26;12.77;90.20
66119;DHT22;52912;48.564;9.302;2023-07-22T04:04:53;12.77;90.29
66119;DHT22;52912;48.564;9.302;2023-07-22T04:07:19;12.71;90.43
66119;DHT22;52912;48.564;9.302;2023-07-22T04:09:45;12.71;90.37
66119;DHT22;52912;48.564;9.302;2023-07-22T04:12:10;12.69;90.53
66119;DHT22;52912;48.564;9.302;2023-07-22T04:14:38;12.71;90.89
66119;DHT22;52912;48.564;9.302;2023-07-22T04:17:04;12.60;91.24
66119;DHT22;52912;48.564;9.302;2023-07-22T04:19:30;12.54;91.18
66119;DHT22;52912;48.564;9.302;2023-07-22T04:21:55;12.49;91.27
66119;DHT22;52912;48.564;9.302;2023-07-22T04:24:21;12.46;91.74
66119;DHT22;52912;48.564;9.302;2023-07-22T04:26:46;12.56;91.22
66119;DHT22;52912;48.564;9.302;2023-07-22T04:29:11;12.61;90.98
66119;DHT22;52912;48.564;9.302;2023-07-22T04:31:38;12.61;91.03
66119;DHT22;52912;48.564;9.302;2023-07-22T04:34:04;12.64;91.04
66119;DHT22;52912;48.564;9.302;2023-07-22T04:36:29;12.68;90.82
66119;DHT22;52912;48.564;9.302;2023-07-22T04:38:55;12.74;90.96
66119;DHT22;52912;48.564;9.302;2023-07-22T04:41:20;12.83;90.89
66119;DHT22;52912;48.564;9.302;2023-07-22T04:43:46;12.78;90.83
66119;DHT22;52912;48.564;9.302;2023-07-22T04:46:11;12.81;90.91
66119;DHT22;52912;48.564;9.302;2023-07-22T04:48:38;12.92;90.38
66119;DHT22;52912;48.564;9.302;2023-07-22T04:51:03;12.96;90.12
66119;DHT22;52912;48.564;9.302;2023-07-22T04:53:29;12.95;90.15
66119;DHT22;52912;48.564;9.302;2023-07-22T04:55:54;13.02;90.47
66119;DHT22;52912;48.564;9.302;2023-07-22T04:58:20;13.08;89.98
66119;DHT22;52912;48.564;9.302;2023-07-22T05:00:45;13.09;89.99
66119;DHT22;52912;48.564;9.302;2023-07-22T05:03:11;13.16;89.73
66119;DHT22;52912;48.564;9.302;2023-07-22T05:05:37;13.37;89.25
66119;DHT22;52912;48.564;9.302;2023-07-22T05:08:03;13.46;89.10
66119;DHT22;52912;48.564;9.302;2023-07-22T05:10:29;13.60;89.20
66119;DHT22;52912;48.564;9.302;2023-07-22T05:12:55;13.64;88.20
66119;DHT22;52912;48.564;9.302;2023-07-22T05:15:20;13.79;87.60
66119;DHT22;52912;48.564;9.302;2023-07-22T05:17:46;13.75;87.43
66119;DHT22;52912;48.564;9.302;2023-07-22T05:20:11;13.85;87.25
66119;DHT22;52912;48.564;9.302;2023-07-22T05:22:39;13.99;87.02
66119;DHT22;52912;48.564;9.302;2023-07-22T05:25:05;13.98;86.98
66119;DHT22;52912;48.564;9.302;2023-07-22T05:27:31;14.13;86.64
66119;DHT22;52912;48.564;9.302;2023-07-22T05:29:57;14.15;86.36
66119;DHT22;52912;48.564;9.302;2023-07-22T05:32:22;14.34;85.91
66119;DHT22;52912;48.564;9.302;2023-07-22T05:34:48;14.48;86.06
66119;DHT22;52912;48.564;9.302;2023-07-22T05:37:13;14.44;85.47
66119;DHT22;52912;48.564;9.302;2023-07-22T05:39:40;14.61;85.09
66119;DHT22;52912;48.564;9.302;2023-07-22T05:42:06;14.81;84.48
66119;DHT22;52912;48.564;9.302;2023-07-22T05:44:31;15.05;84.12
66119;DHT22;52912;48.564;9.302;2023-07-22T05:46:57;15.00;83.96
66119;DHT22;52912;48.564;9.302;2023-07-22T05:49:22;15.05;84.19
66119;DHT22;52912;48.564;9.302;2023-07-22T05:51:48;15.08;84.07
66119;DHT22;52912;48.564;9.302;2023-07-22T05:54:13;15.13;83.90
66119;DHT22;52912;48.564;9.302;2023-07-22T05:56:40;15.30;84.24
66119;DHT22;52912;48.564;9.302;2023-07-22T05:59:05;15.37;83.62
66119;DHT22;52912;48.564;9.302;2023-07-22T06:01:31;15.39;83.27
66119;DHT22;52912;48.564;9.302;2023-07-22T06:03:56;15.61;82.57
66119;DHT22;52912;48.564;9.302;2023-07-22T06:06:22;15.55;82.43
66119;DHT22;52912;48.564;9.302;2023-07-22T06:08:47;15.68;82.25
66119;DHT22;52912;48.564;9.302;2023-07-22T06:11:13;15.67;82.63
66119;DHT22;52912;48.564;9.302;2023-07-22T06:13:39;15.88;82.19
66119;DHT22;52912;48.564;9.302;2023-07-22T06:16:05;15.88;81.69
66119;DHT22;52912;48.564;9.302;2023-07-22T06:18:30;16.02;81.67
66119;DHT22;52912;48.564;9.302;2023-07-22T06:20:56;16.09;81.50
66119;DHT22;52912;48.564;9.302;2023-07-22T06:23:21;16.09;81.93
66119;DHT22;52912;48.564;9.302;2023-07-22T06:25:47;16.24;81.00
66119;DHT22;52912;48.564;9.302;2023-07-22T06:28:12;16.29;81.25
66119;DHT22;52912;48.564;9.302;2023-07-22T06:30:39;16.47;80.90
66119;DHT22;52912;48.564;9.302;2023-07-22T06:33:04;16.47;80.87
66119;DHT22;52912;48.564;9.302;2023-07-22T06:35:30;16.60;80.57
66119;DHT22;52912;48.564;9.302;2023-07-22T06:37:55;16.67;80.20
66119;DHT22;52912;48.564;9.302;2023-07-22T06:40:21;16.78;80.17
66119;DHT22;52912;48.564;9.302;2023-07-22T06:42:46;16.89;80.31
66119;DHT22;52912;48.564;9.302;2023-07-22T06:45:12;17.05;80.08
66119;DHT22;52912;48.564;9.302;2023-07-22T06:47:39;17.16;79.44
66119;DHT22;52912;48.564;9.302;2023-07-22T06:50:05;17.27;79.49
66119;DHT22;52912;48.564;9.302;2023-07-22T06:52:30;17.47;78.72
66119;DHT22;52912;48.564;9.302;2023-07-22T06:54:56;17.53;78.56
66119;DHT22;52912;48.564;9.302;2023-07-22T06:57:22;17.70;78.71
66119;DHT22;52912;48.564;9.302;2023-07-22T06:59:47;17.82;77.97
66119;DHT22;52912;48.564;9.302;2023-07-22T07:02:14;17.99;77.49
66119;DHT22;52912;48.564;9.302;2023-07-22T07:04:41;18.16;77.08
66119;DHT22;52912;48.564;9.302;2023-07-22T07:07:07;18.33;76.27
66119;DHT22;52912;48.564;9.302;2023-07-22T07:09:32;18.46;75.24
66119;DHT22;52912;48.564;9.302;2023-07-22T07:11:57;18.54;75.37
66119;DHT22;52912;48.564;9.302;2023-07-22T07:14:23;18.67;74.80
66119;DHT22;52912;48.564;9.302;2023-07-22T07:16:49;18.72;74.11
66119;DHT22;52912;48.564;9.302;2023-07-22T07:19:14;18.84;72.85
66119;DHT22;52912;48.564;9.302;2023-07-22T07:21:41;19.12;72.32
66119;DHT22;52912;48.564;9.302;2023-07-22T07:24:07;19.37;71.88
66119;DHT22;52912;48.564;9.302;2023-07-22T07:26:32;19.44;71.86
66119;DHT22;52912;48.564;9.302;2023-07-22T07:28:58;19.51;71.11
66119;DHT22;52912;48.564;9.302;2023-07-22T07:31:23;19.72;72.09
66119;DHT22;52912;48.564;9.302;2023-07-22T07:33:48;19.93;70.58
66119;DHT22;52912;48.564;9.302;2023-07-22T07:36:14;19.89;70.58
66119;DHT22;52912;48.564;9.302;2023-07-22T07:38:41;20.09;70.49
66119;DHT22;52912;48.564;9.302;2023-07-22T07:41:06;20.30;70.10
66119;DHT22;52912;48.564;9.302;2023-07-22T07:43:32;20.41;70.50
66119;DHT22;52912;48.564;9.302;2023-07-22T07:46:15;20.67;68.94
66119;DHT22;52912;48.564;9.302;2023-07-22T07:48:40;20.91;68.24
66119;DHT22;52912;48.564;9.302;2023-07-22T07:51:06;21.13;68.20
66119;DHT22;52912;48.564;9.302;2023-07-22T07:53:31;21.30;67.26
66119;DHT22;52912;48.564;9.302;2023-07-22T07:55:58;21.47;67.65
66119;DHT22;52912;48.564;9.302;2023-07-22T07:58:24;21.43;66.75
66119;DHT22;52912;48.564;9.302;2023-07-22T08:00:49;21.51;67.35
66119;DHT22;52912;48.564;9.302;2023-07-22T08:03:15;21.51;66.21
66119;DHT22;52912;48.564;9.302;2023-07-22T08:05:41;21.67;65.78
66119;DHT22;52912;48.564;9.302;2023-07-22T08:08:06;21.89;65.43
66119;DHT22;52912;48.564;9.302;2023-07-22T08:10:32;21.92;64.11
66119;DHT22;52912;48.564;9.302;2023-07-22T08:12:59;22.13;63.21
66119;DHT22;52912;48.564;9.302;2023-07-22T08:15:24;22.37;63.28
66119;DHT22;52912;48.564;9.302;2023-07-22T08:17:50;22.19;62.60
66119;DHT22;52912;48.564;9.302;2023-07-22T08:20:15;22.44;63.16
66119;DHT22;52912;48.564;9.302;2023-07-22T08:22:41;22.51;62.26
66119;DHT22;52912;48.564;9.302;2023-07-22T08:25:07;22.71;62.02
66119;DHT22;52912;48.564;9.302;2023-07-22T08:27:33;22.88;61.97
66119;DHT22;52912;48.564;9.302;2023-07-22T08:30:00;22.92;61.09
66119;DHT22;52912;48.564;9.302;2023-07-22T08:32:25;23.08;61.10
66119;DHT22;52912;48.564;9.302;2023-07-22T08:34:50;23.19;59.76
66119;DHT22;52912;48.564;9.302;2023-07-22T08:37:16;23.09;59.62
66119;DHT22;52912;48.564;9.302;2023-07-22T08:39:41;23.08;60.44
66119;DHT22;52912;48.564;9.302;2023-07-22T08:42:07;23.23;60.15
66119;DHT22;52912;48.564;9.302;2023-07-22T08:44:33;23.40;59.15
66119;DHT22;52912;48.564;9.302;2023-07-22T08:47:06;23.82;58.11
66119;DHT22;52912;48.564;9.302;2023-07-22T08:49:33;23.82;58.82
66119;DHT22;52912;48.564;9.302;2023-07-22T08:51:59;23.91;58.73
66119;DHT22;52912;48.564;9.302;2023-07-22T08:54:25;24.25;57.30
66119;DHT22;52912;48.564;9.302;2023-07-22T08:56:51;24.44;57.09
66119;DHT22;52912;48.564;9.302;2023-07-22T08:59:17;24.57;56.03
66119;DHT22;52912;48.564;9.302;2023-07-22T09:01:43;24.30;55.36
66119;DHT22;52912;48.564;9.302;2023-07-22T09:04:11;24.53;56.05
66119;DHT22;52912;48.564;9.302;2023-07-22T09:06:36;24.10;53.64
66119;DHT22;52912;48.564;9.302;2023-07-22T09:09:03;24.41;53.98
66119;DHT22;52912;48.564;9.302;2023-07-22T09:11:28;24.70;53.98
66119;DHT22;52912;48.564;9.302;2023-07-22T09:13:54;24.98;53.22
66119;DHT22;52912;48.564;9.302;2023-07-22T09:16:21;24.99;51.15
66119;DHT22;52912;48.564;9.302;2023-07-22T09:18:47;24.82;50.52
66119;DHT22;52912;48.564;9.302;2023-07-22T09:21:13;25.15;51.25
66119;DHT22;52912;48.564;9.302;2023-07-22T09:23:39;25.34;51.42
66119;DHT22;52912;48.564;9.302;2023-07-22T09:26:11;25.23;51.49
66119;DHT22;52912;48.564;9.302;2023-07-22T09:28:48;25.09;50.93
66119;DHT22;52912;48.564;9.302;2023-07-22T09:31:13;25.27;51.00
66119;DHT22;52912;48.564;9.302;2023-07-22T09:33:39;25.68;50.98
66119;DHT22;52912;48.564;9.302;2023-07-22T09:36:04;25.75;50.93
66119;DHT22;52912;48.564;9.302;2023-07-22T09:38:31;25.99;48.73
66119;DHT22;52912;48.564;9.302;2023-07-22T09:40:57;25.61;48.73
66119;DHT22;52912;48.564;9.302;2023-07-22T09:43:23;26.50;48.70
66119;DHT22;52912;48.564;9.302;2023-07-22T09:45:48;26.30;49.41
66119;DHT22;52912;48.564;9.302;2023-07-22T09:48:14;25.91;50.16
66119;DHT22;52912;48.564;9.302;2023-07-22T09:50:40;26.26;49.44
66119;DHT22;52912;48.564;9.302;2023-07-22T09:53:06;25.92;48.49
66119;DHT22;52912;48.564;9.302;2023-07-22T09:55:33;25.96;49.72
66119;DHT22;52912;48.564;9.302;2023-07-22T09:58:00;26.46;48.70
66119;DHT22;52912;48.564;9.302;2023-07-22T10:00:28;27.15;47.68
66119;DHT22;52912;48.564;9.302;2023-07-22T10:02:56;26.92;48.07
66119;DHT22;52912;48.564;9.302;2023-07-22T10:05:22;26.33;47.66
66119;DHT22;52912;48.564;9.302;2023-07-22T10:07:50;25.87;48.30
66119;DHT22;52912;48.564;9.302;2023-07-22T10:10:16;25.57;48.65
66119;DHT22;52912;48.564;9.302;2023-07-22T10:12:44;25.47;49.66
66119;DHT22;52912;48.564;9.302;2023-07-22T10:15:10;25.57;49.13
66119;DHT22;52912;48.564;9.302;2023-07-22T10:17:36;25.50;48.91
66119;DHT22;52912;48.564;9.302;2023-07-22T10:20:02;25.23;49.90
66119;DHT22;52912;48.564;9.302;2023-07-22T10:22:28;25.50;49.01
66119;DHT22;52912;48.564;9.302;2023-07-22T10:24:55;26.09;48.39
66119;DHT22;52912;48.564;9.302;2023-07-22T10:27:21;25.91;47.56
66119;DHT22;52912;48.564;9.302;2023-07-22T10:29:49;25.95;47.72
66119;DHT22;52912;48.564;9.302;2023-07-22T10:32:14;25.54;48.97
66119;DHT22;52912;48.564;9.302;2023-07-22T10:34:40;25.29;49.60
66119;DHT22;52912;48.564;9.302;2023-07-22T10:37:09;25.88;49.00
66119;DHT22;52912;48.564;9.302;2023-07-22T10:39:34;25.88;49.02
66119;DHT22;52912;48.564;9.302;2023-07-22T10:42:01;26.21;48.64
66119;DHT22;52912;48.564;9.302;2023-07-22T10:44:26;26.16;47.47
66119;DHT22;52912;48.564;9.302;2023-07-22T10:46:58;25.99;48.28
66119;DHT22;52912;48.564;9.302;2023-07-22T10:49:24;26.74;47.67
66119;DHT22;52912;48.564;9.302;2023-07-22T10:51:50;26.96;48.14
66119;DHT22;52912;48.564;9.302;2023-07-22T10:54:31;26.90;48.24
66119;DHT22;52912;48.564;9.302;2023-07-22T10:56:57;26.40;48.87
66119;DHT22;52912;48.564;9.302;2023-07-22T10:59:27;25.67;49.57
66119;DHT22;52912;48.564;9.302;2023-07-22T11:01:53;25.19;51.32
66119;DHT22;52912;48.564;9.302;2023-07-22T11:04:24;25.01;52.23
66119;DHT22;52912;48.564;9.302;2023-07-22T11:06:54;25.94;50.70
66119;DHT22;52912;48.564;9.302;2023-07-22T11:09:35;26.53;49.76
66119;DHT22;52912;48.564;9.302;2023-07-22T11:12:02;26.67;49.24
66119;DHT22;52912;48.564;9.302;2023-07-22T11:14:28;26.80;49.71
66119;DHT22;52912;48.564;9.302;2023-07-22T11:16:56;27.53;47.33
66119;DHT22;52912;48.564;9.302;2023-07-22T11:19:24;27.30;47.67
66119;DHT22;52912;48.564;9.302;2023-07-22T11:21:51;26.67;49.81
66119;DHT22;52912;48.564;9.302;2023-07-22T11:24:18;26.39;50.48
66119;DHT22;52912;48.564;9.302;2023-07-22T11:26:44;26.13;50.74
66119;DHT22;52912;48.564;9.302;2023-07-22T11:29:10;26.28;50.70
66119;DHT22;52912;48.564;9.302;2023-07-22T11:31:38;26.54;50.15
66119;DHT22;52912;48.564;9.302;2023-07-22T11:34:04;27.46;48.29
66119;DHT22;52912;48.564;9.302;2023-07-22T11:36:31;27.77;47.77
66119;DHT22;52912;48.564;9.302;2023-07-22T11:39:01;28.43;46.96
66119;DHT22;52912;48.564;9.302;2023-07-22T11:41:27;29.14;46.34
66119;DHT22;52912;48.564;9.302;2023-07-22T11:43:52;29.43;45.58
66119;DHT22;52912;48.564;9.302;2023-07-22T11:46:18;28.56;46.67
66119;DHT22;52912;48.564;9.302;2023-07-22T11:48:50;28.82;45.42
66119;DHT22;52912;48.564;9.302;2023-07-22T11:51:17;28.25;46.02
66119;DHT22;52912;48.564;9.302;2023-07-22T11:53:46;27.28;47.19
66119;DHT22;52912;48.564;9.302;2023-07-22T11:56:12;26.90;46.94
66119;DHT22;52912;48.564;9.302;2023-07-22T11:58:38;26.77;47.80
66119;DHT22;52912;48.564;9.302;2023-07-22T12:01:05;26.39;47.89
66119;DHT22;52912;48.564;9.302;2023-07-22T12:03:32;26.29;48.27
66119;DHT22;52912;48.564;9.302;2023-07-22T12:06:00;26.15;48.39
66119;DHT22;52912;48.564;9.302;2023-07-22T12:08:26;26.36;49.19
66119;DHT22;52912;48.564;9.302;2023-07-22T12:10:57;27.30;48.40
66119;DHT22;52912;48.564;9.302;2023-07-22T12:13:23;27.56;47.21
66119;DHT22;52912;48.564;9.302;2023-07-22T12:15:59;26.92;47.32
66119;DHT22;52912;48.564;9.302;2023-07-22T12:18:25;26.61;47.76
66119;DHT22;52912;48.564;9.302;2023-07-22T12:20:50;26.74;48.97
66119;DHT22;52912;48.564;9.302;2023-07-22T12:23:16;26.29;48.48
66119;DHT22;52912;48.564;9.302;2023-07-22T12:25:41;26.09;48.68
66119;DHT22;52912;48.564;9.302;2023-07-22T12:28:08;26.37;49.29
66119;DHT22;52912;48.564;9.302;2023-07-22T12:30:33;27.80;47.65
66119;DHT22;52912;48.564;9.302;2023-07-22T12:32:59;28.57;46.91
66119;DHT22;52912;48.564;9.302;2023-07-22T12:35:24;28.77;45.81
66119;DHT22;52912;48.564;9.302;2023-07-22T12:37:50;29.26;45.21
66119;DHT22;52912;48.564;9.302;2023-07-22T12:40:15;27.90;45.87
66119;DHT22;52912;48.564;9.302;2023-07-22T12:42:41;27.33;46.42
66119;DHT22;52912;48.564;9.302;2023-07-22T12:45:08;28.25;46.09
66119;DHT22;52912;48.564;9.302;2023-07-22T12:47:34;28.15;47.11
66119;DHT22;52912;48.564;9.302;2023-07-22T12:49:59;28.86;45.39
66119;DHT22;52912;48.564;9.302;2023-07-22T12:52:25;28.23;45.35
66119;DHT22;52912;48.564;9.302;2023-07-22T12:54:50;29.19;44.42
66119;DHT22;52912;48.564;9.302;2023-07-22T12:57:16;28.22;45.59
66119;DHT22;52912;48.564;9.302;2023-07-22T12:59:41;27.43;45.52
66119;DHT22;52912;48.564;9.302;2023-07-22T13:02:08;27.57;46.06
66119;DHT22;52912;48.564;9.302;2023-07-22T13:04:33;28.23;45.77
66119;DHT22;52912;48.564;9.302;2023-07-22T13:06:59;29.22;45.10
66119;DHT22;52912;48.564;9.302;2023-07-22T13:09:25;29.56;44.43
66119;DHT22;52912;48.564;9.302;2023-07-22T13:11:50;29.87;44.68
66119;DHT22;52912;48.564;9.302;2023-07-22T13:14:16;29.36;45.13
66119;DHT22;52912;48.564;9.302;2023-07-22T13:16:41;29.33;45.06
66119;DHT22;52912;48.564;9.302;2023-07-22T13:19:08;29.77;44.33
66119;DHT22;52912;48.564;9.302;2023-07-22T13:21:34;29.43;45.66
66119;DHT22;52912;48.564;9.302;2023-07-22T13:23:59;29.16;45.21
66119;DHT22;52912;48.564;9.302;2023-07-22T13:26:25;29.40;44.73
66119;DHT22;52912;48.564;9.302;2023-07-22T13:28:50;29.14;45.04
66119;DHT22;52912;48.564;9.302;2023-07-22T13:31:16;28.18;45.33
66119;DHT22;52912;48.564;9.302;2023-07-22T13:33:41;28.81;43.85
66119;DHT22;52912;48.564;9.302;2023-07-22T13:36:08;29.61;43.06
66119;DHT22;52912;48.564;9.302;2023-07-22T13:38:34;29.04;44.20
66119;DHT22;52912;48.564;9.302;2023-07-22T13:40:59;30.19;42.99
66119;DHT22;52912;48.564;9.302;2023-07-22T13:43:24;29.64;43.64
66119;DHT22;52912;48.564;9.302;2023-07-22T13:45:50;28.40;44.30
66119;DHT22;52912;48.564;9.302;2023-07-22T13:48:15;28.70;44.19
66119;DHT22;52912;48.564;9.302;2023-07-22T13:50:41;29.23;43.91
66119;DHT22;52912;48.564;9.302;2023-07-22T13:53:08;29.14;43.21
66119;DHT22;52912;48.564;9.302;2023-07-22T13:55:33;28.74;44.03
66119;DHT22;52912;48.564;9.302;2023-07-22T13:57:59;29.26;43.89
66119;DHT22;52912;48.564;9.302;2023-07-22T14:00:24;29.18;43.75
66119;DHT22;52912;48.564;9.302;2023-07-22T14:02:49;30.11;42.36
66119;DHT22;52912;48.564;9.302;2023-07-22T14:05:15;30.61;41.87
66119;DHT22;52912;48.564;9.302;2023-07-22T14:07:40;30.02;43.01
66119;DHT22;52912;48.564;9.302;2023-07-22T14:10:08;29.94;43.06
66119;DHT22;52912;48.564;9.302;2023-07-22T14:12:34;30.11;43.45
66119;DHT22;52912;48.564;9.302;2023-07-22T14:14:59;30.46;42.61
66119;DHT22;52912;48.564;9.302;2023-07-22T14:17:25;30.94;41.90
66119;DHT22;52912;48.564;9.302;2023-07-22T14:19:50;30.43;42.74
66119;DHT22;52912;48.564;9.302;2023-07-22T14:22:16;30.53;42.45
66119;DHT22;52912;48.564;9.302;2023-07-22T14:24:41;30.04;43.00
66119;DHT22;52912;48.564;9.302;2023-07-22T14:27:08;29.54;42.95
66119;DHT22;52912;48.564;9.302;2023-07-22T14:29:33;29.71;43.11
66119;DHT22;52912;48.564;9.302;2023-07-22T14:31:59;28.91;43.48
66119;DHT22;52912;48.564;9.302;2023-07-22T14:34:24;29.54;43.50
66119;DHT22;52912;48.564;9.302;2023-07-22T14:36:50;30.28;42.36
66119;DHT22;52912;48.564;9.302;2023-07-22T14:39:15;29.60;43.20
66119;DHT22;52912;48.564;9.302;2023-07-22T14:41:41;29.59;43.48
66119;DHT22;52912;48.564;9.302;2023-07-22T14:44:08;30.37;42.19
66119;DHT22;52912;48.564;9.302;2023-07-22T14:46:33;30.50;41.92
66119;DHT22;52912;48.564;9.302;2023-07-22T14:48:59;30.67;40.94
66119;DHT22;52912;48.564;9.302;2023-07-22T14:51:24;30.56;40.88
66119;DHT22;52912;48.564;9.302;2023-07-22T14:53:50;30.63;41.06
66119;DHT22;52912;48.564;9.302;2023-07-22T14:56:15;30.67;40.50
66119;DHT22;52912;48.564;9.302;2023-07-22T14:58:41;30.04;40.42
66119;DHT22;52912;48.564;9.302;2023-07-22T15:01:08;30.09;40.92
66119;DHT22;52912;48.564;9.302;2023-07-22T15:03:33;29.88;41.87
66119;DHT22;52912;48.564;9.302;2023-07-22T15:05:59;30.21;41.58
66119;DHT22;52912;48.564;9.302;2023-07-22T15:08:24;30.23;40.65
66119;DHT22;52912;48.564;9.302;2023-07-22T15:10:50;30.19;41.27
66119;DHT22;52912;48.564;9.302;2023-07-22T15:13:15;29.73;41.31
66119;DHT22;52912;48.564;9.302;2023-07-22T15:15:40;29.87;40.76
66119;DHT22;52912;48.564;9.302;2023-07-22T15:18:07;29.54;40.91
66119;DHT22;52912;48.564;9.302;2023-07-22T15:20:33;29.29;41.11
66119;DHT22;52912;48.564;9.302;2023-07-22T15:22:58;28.92;41.09